createdAt,value
2018-05-08T00:00:30.252Z,8.00
2018-05-08T00:02:57.748Z,8.00
2018-05-08T00:05:25.204Z,8.00
2018-05-08T00:07:52.700Z,8.00
2018-05-08T00:10:20.149Z,8.00
2018-05-08T00:12:47.653Z,7.90
2018-05-08T00:15:15.104Z,7.80
2018-05-08T00:17:42.602Z,7.80
2018-05-08T00:20:10.079Z,7.80
2018-05-08T00:22:38.320Z,7.60
2018-05-08T00:25:05.830Z,7.70
2018-05-08T00:27:33.282Z,7.60
2018-05-08T00:30:00.781Z,7.60
2018-05-08T00:32:28.265Z,7.60
2018-05-08T00:34:55.749Z,7.60
2018-05-08T00:37:23.255Z,7.60
2018-05-08T00:39:50.744Z,7.50
2018-05-08T00:42:18.222Z,7.50
2018-05-08T00:44:46.473Z,7.40
2018-05-08T00:47:13.933Z,7.40
2018-05-08T00:49:41.468Z,7.40
2018-05-08T00:52:09.033Z,7.30
2018-05-08T00:54:48.340Z,7.40
2018-05-08T00:57:15.828Z,7.40
2018-05-08T00:59:43.284Z,7.40
2018-05-08T01:02:10.797Z,7.30
2018-05-08T01:04:39.026Z,7.30
2018-05-08T01:07:06.507Z,7.30
2018-05-08T01:09:34.738Z,7.20
2018-05-08T01:12:02.271Z,7.20
2018-05-08T01:17:21.297Z,7.20
2018-05-08T01:19:48.860Z,7.20
2018-05-08T01:22:16.354Z,7.10
2018-05-08T01:24:44.603Z,7.10
2018-05-08T01:27:12.093Z,7.10
2018-05-08T01:29:40.308Z,7.00
2018-05-08T01:32:07.779Z,7.00
2018-05-08T01:34:35.260Z,7.00
2018-05-08T01:37:02.720Z,7.00
2018-05-08T01:39:30.212Z,6.90
2018-05-08T01:41:57.685Z,6.90
2018-05-08T01:44:25.171Z,6.80
2018-05-08T01:46:52.640Z,6.80
2018-05-08T01:49:20.121Z,6.80
2018-05-08T01:51:48.369Z,6.70
2018-05-08T01:54:15.856Z,6.70
2018-05-08T01:56:44.080Z,6.70
2018-05-08T01:59:11.566Z,6.70
2018-05-08T02:01:39.033Z,6.60
2018-05-08T02:04:06.501Z,6.70
2018-05-08T02:06:34.008Z,6.70
2018-05-08T02:09:01.478Z,6.80
2018-05-08T02:11:28.965Z,6.80
2018-05-08T02:13:56.429Z,6.80
2018-05-08T02:16:23.920Z,6.80
2018-05-08T02:18:51.406Z,6.90
2018-05-08T02:21:18.864Z,6.80
2018-05-08T02:23:46.347Z,6.80
2018-05-08T02:26:13.804Z,6.80
2018-05-08T02:28:41.292Z,6.80
2018-05-08T02:31:09.553Z,6.80
2018-05-08T02:33:37.052Z,6.70
2018-05-08T02:36:04.517Z,6.80
2018-05-08T02:38:32.008Z,6.80
2018-05-08T02:40:59.485Z,6.80
2018-05-08T02:43:26.941Z,6.80
2018-05-08T02:45:54.449Z,6.80
2018-05-08T02:48:21.904Z,6.80
2018-05-08T02:50:49.398Z,6.70
2018-05-08T02:53:16.886Z,6.80
2018-05-08T02:55:44.368Z,6.80
2018-05-08T02:58:12.581Z,6.70
2018-05-08T03:00:40.109Z,6.70
2018-05-08T03:03:08.382Z,6.60
2018-05-08T03:05:36.608Z,6.60
2018-05-08T03:08:04.088Z,6.60
2018-05-08T03:10:31.553Z,6.60
2018-05-08T03:13:00.541Z,6.60
2018-05-08T03:15:28.000Z,6.60
2018-05-08T03:17:55.539Z,6.60
2018-05-08T03:20:23.017Z,6.50
2018-05-08T03:22:50.505Z,6.50
2018-05-08T03:25:17.971Z,6.50
2018-05-08T03:27:45.465Z,6.50
2018-05-08T03:30:13.681Z,6.50
2018-05-08T03:32:41.960Z,6.40
2018-05-08T03:35:09.413Z,6.40
2018-05-08T03:37:37.685Z,6.40
2018-05-08T03:40:05.132Z,6.40
2018-05-08T03:42:33.395Z,6.40
2018-05-08T03:45:00.850Z,6.40
2018-05-08T03:47:28.336Z,6.40
2018-05-08T03:49:55.822Z,6.40
2018-05-08T03:52:23.316Z,6.40
2018-05-08T03:54:50.784Z,6.30
2018-05-08T03:57:18.321Z,6.30
2018-05-08T03:59:46.541Z,6.30
2018-05-08T04:02:25.740Z,6.30
2018-05-08T04:05:05.173Z,6.30
2018-05-08T04:07:44.493Z,6.20
2018-05-08T04:10:11.990Z,6.30
2018-05-08T04:12:39.460Z,6.20
2018-05-08T04:15:07.001Z,6.20
2018-05-08T04:17:34.438Z,6.20
2018-05-08T04:20:01.938Z,6.20
2018-05-08T04:22:29.393Z,6.20
2018-05-08T04:24:56.894Z,6.20
2018-05-08T04:27:24.390Z,6.20
2018-05-08T04:29:51.880Z,6.30
2018-05-08T04:32:19.361Z,6.30
2018-05-08T04:34:47.599Z,6.40
2018-05-08T04:37:15.117Z,6.40
2018-05-08T04:39:42.580Z,6.40
2018-05-08T04:42:10.088Z,6.50
2018-05-08T04:44:37.564Z,6.50
2018-05-08T04:47:05.802Z,6.60
2018-05-08T04:49:33.284Z,6.60
2018-05-08T04:52:01.566Z,6.80
2018-05-08T04:54:29.041Z,6.70
2018-05-08T04:56:57.292Z,6.90
2018-05-08T04:59:24.769Z,6.90
2018-05-08T05:01:53.025Z,7.10
2018-05-08T05:04:20.521Z,7.10
2018-05-08T05:06:47.992Z,7.20
2018-05-08T05:09:15.485Z,7.30
2018-05-08T05:11:42.941Z,7.40
2018-05-08T05:14:10.442Z,7.50
2018-05-08T05:16:38.671Z,7.80
2018-05-08T05:19:06.169Z,7.70
2018-05-08T05:21:34.392Z,8.00
2018-05-08T05:24:01.848Z,8.00
2018-05-08T05:26:29.328Z,8.20
2018-05-08T05:28:56.816Z,8.50
2018-05-08T05:31:25.089Z,8.90
2018-05-08T05:33:52.564Z,8.90
2018-05-08T05:36:20.836Z,9.30
2018-05-08T05:38:49.078Z,9.50
2018-05-08T05:41:16.553Z,9.50
2018-05-08T05:43:44.049Z,9.80
2018-05-08T05:46:11.549Z,10.00
2018-05-08T05:48:39.025Z,10.30
2018-05-08T05:51:06.544Z,10.60
2018-05-08T05:53:34.048Z,11.00
2018-05-08T05:56:02.319Z,11.60
2018-05-08T05:58:29.846Z,11.60
2018-05-08T06:00:57.316Z,11.80
2018-05-08T06:03:24.800Z,12.10
2018-05-08T06:05:52.279Z,12.30
2018-05-08T06:08:20.558Z,12.90
2018-05-08T06:10:48.805Z,13.10
2018-05-08T06:13:16.305Z,13.00
2018-05-08T06:15:43.808Z,13.50
2018-05-08T06:18:11.333Z,13.90
2018-05-08T06:20:38.833Z,14.20
2018-05-08T06:23:06.569Z,14.50
2018-05-08T06:25:34.077Z,14.80
2018-05-08T06:28:01.540Z,14.90
2018-05-08T06:30:29.805Z,15.40
2018-05-08T06:32:57.265Z,15.40
2018-05-08T06:35:26.406Z,15.90
2018-05-08T06:37:53.889Z,15.90
2018-05-08T06:40:21.368Z,16.10
2018-05-08T06:42:50.346Z,16.40
2018-05-08T06:45:17.833Z,16.40
2018-05-08T06:47:45.349Z,16.60
2018-05-08T06:50:12.804Z,16.80
2018-05-08T06:52:40.309Z,16.90
2018-05-08T06:55:08.578Z,17.30
2018-05-08T06:57:37.580Z,17.40
2018-05-08T07:00:05.842Z,17.60
2018-05-08T07:02:33.307Z,17.50
2018-05-08T07:05:01.576Z,17.80
2018-05-08T07:07:29.080Z,17.70
2018-05-08T07:09:57.362Z,18.10
2018-05-08T07:12:24.924Z,18.10
2018-05-08T07:14:52.418Z,18.30
2018-05-08T07:17:19.920Z,18.50
2018-05-08T07:19:48.153Z,19.10
2018-05-08T07:22:15.637Z,19.10
2018-05-08T07:24:43.121Z,19.30
2018-05-08T07:27:11.381Z,19.20
2018-05-08T07:29:38.834Z,19.20
2018-05-08T07:32:06.357Z,19.30
2018-05-08T07:34:33.849Z,19.40
2018-05-08T07:37:01.346Z,19.60
2018-05-08T07:39:28.833Z,19.60
2018-05-08T07:41:56.332Z,19.80
2018-05-08T07:44:23.842Z,20.00
2018-05-08T07:46:51.315Z,20.10
2018-05-08T07:49:18.818Z,20.10
2018-05-08T07:51:47.114Z,20.40
2018-05-08T07:54:14.564Z,20.50
2018-05-08T07:56:42.800Z,20.80
2018-05-08T07:59:10.329Z,20.80
2018-05-08T08:01:37.803Z,20.60
2018-05-08T08:04:05.265Z,20.70
2018-05-08T08:06:32.759Z,21.00
2018-05-08T08:09:01.001Z,21.10
2018-05-08T08:11:28.509Z,21.10
2018-05-08T08:13:55.974Z,21.30
2018-05-08T08:16:23.460Z,21.30
2018-05-08T08:18:50.934Z,21.30
2018-05-08T08:21:18.437Z,21.20
2018-05-08T08:23:46.708Z,21.90
2018-05-08T08:26:14.201Z,21.90
2018-05-08T08:28:41.683Z,22.30
2018-05-08T08:31:09.176Z,22.10
2018-05-08T08:33:36.629Z,22.30
2018-05-08T08:36:04.236Z,22.20
2018-05-08T08:38:31.714Z,22.20
2018-05-08T08:40:59.936Z,22.40
2018-05-08T08:43:27.410Z,22.70
2018-05-08T08:45:54.876Z,22.70
2018-05-08T08:48:22.368Z,22.70
2018-05-08T08:50:49.846Z,22.40
2018-05-08T08:53:17.322Z,22.50
2018-05-08T08:55:45.585Z,23.00
2018-05-08T08:58:13.045Z,22.90
2018-05-08T09:00:40.540Z,23.20
2018-05-08T09:03:08.029Z,23.30
2018-05-08T09:05:35.548Z,22.80
2018-05-08T09:08:03.804Z,23.10
2018-05-08T09:10:31.256Z,23.00
2018-05-08T09:12:58.801Z,23.10
2018-05-08T09:15:26.246Z,23.20
2018-05-08T09:17:53.740Z,23.50
2018-05-08T09:20:21.197Z,23.70
2018-05-08T09:22:48.710Z,23.70
2018-05-08T09:25:16.211Z,23.70
2018-05-08T09:27:43.749Z,23.70
2018-05-08T09:30:11.970Z,23.90
2018-05-08T09:32:40.251Z,23.90
2018-05-08T09:35:08.494Z,24.40
2018-05-08T09:37:35.970Z,24.40
2018-05-08T09:40:03.492Z,24.50
2018-05-08T09:42:30.957Z,24.10
2018-05-08T09:44:58.469Z,24.00
2018-05-08T09:47:26.720Z,24.10
2018-05-08T09:49:54.201Z,24.00
2018-05-08T09:52:21.657Z,24.10
2018-05-08T09:54:49.169Z,24.30
2018-05-08T09:57:16.629Z,24.60
2018-05-08T09:59:44.125Z,24.90
2018-05-08T10:02:12.412Z,25.10
2018-05-08T10:04:40.661Z,25.10
2018-05-08T10:07:08.134Z,25.10
2018-05-08T10:09:36.377Z,25.30
2018-05-08T10:12:03.864Z,25.30
2018-05-08T10:14:31.361Z,25.30
2018-05-08T10:16:58.882Z,25.30
2018-05-08T10:19:27.149Z,25.50
2018-05-08T10:21:54.650Z,25.40
2018-05-08T10:24:22.677Z,25.60
2018-05-08T10:26:50.252Z,25.70
2018-05-08T10:29:18.399Z,25.70
2018-05-08T10:31:45.888Z,25.70
2018-05-08T10:34:14.128Z,25.80
2018-05-08T10:36:41.625Z,25.70
2018-05-08T10:39:09.869Z,25.70
2018-05-08T10:41:37.361Z,25.70
2018-05-08T10:44:05.620Z,26.20
2018-05-08T10:46:33.090Z,26.20
2018-05-08T10:49:01.388Z,25.60
2018-05-08T10:51:28.871Z,25.60
2018-05-08T10:53:56.354Z,25.40
2018-05-08T10:56:23.829Z,25.80
2018-05-08T10:58:51.317Z,26.00
2018-05-08T11:01:20.037Z,26.40
2018-05-08T11:03:47.523Z,26.40
2018-05-08T11:06:15.014Z,26.10
2018-05-08T11:08:43.265Z,26.10
2018-05-08T11:11:11.552Z,26.00
2018-05-08T11:13:39.836Z,26.20
2018-05-08T11:16:08.080Z,26.40
2018-05-08T11:18:35.545Z,26.40
2018-05-08T11:21:03.077Z,26.60
2018-05-08T11:23:30.540Z,26.90
2018-05-08T11:25:58.049Z,26.60
2018-05-08T11:28:26.728Z,26.00
2018-05-08T11:30:55.018Z,26.20
2018-05-08T11:33:23.258Z,26.30
2018-05-08T11:35:50.771Z,26.30
2018-05-08T11:38:19.019Z,26.50
2018-05-08T11:40:47.330Z,26.60
2018-05-08T11:43:14.798Z,26.50
2018-05-08T11:45:42.300Z,26.80
2018-05-08T11:48:09.795Z,26.90
2018-05-08T11:50:37.341Z,27.20
2018-05-08T11:53:05.609Z,27.10
2018-05-08T11:55:33.869Z,26.70
2018-05-08T11:58:01.371Z,26.70
2018-05-08T12:00:28.848Z,26.80
2018-05-08T12:02:56.369Z,27.00
2018-05-08T12:05:24.597Z,27.00
2018-05-08T12:07:52.124Z,27.00
2018-05-08T12:10:19.593Z,27.20
2018-05-08T12:12:47.108Z,27.70
2018-05-08T12:15:16.104Z,27.80
2018-05-08T12:17:44.340Z,28.00
2018-05-08T12:20:11.834Z,28.00
2018-05-08T12:22:39.309Z,28.10
2018-05-08T12:25:07.565Z,27.90
2018-05-08T12:27:35.817Z,27.90
2018-05-08T12:30:03.318Z,27.90
2018-05-08T12:32:31.569Z,27.60
2018-05-08T12:34:59.075Z,27.60
2018-05-08T12:37:26.546Z,27.60
2018-05-08T12:39:54.067Z,27.20
2018-05-08T12:42:22.381Z,27.30
2018-05-08T12:44:49.863Z,27.30
2018-05-08T12:47:17.340Z,27.80
2018-05-08T12:49:44.898Z,28.00
2018-05-08T12:52:12.365Z,27.50
2018-05-08T12:54:40.666Z,27.80
2018-05-08T12:57:08.910Z,28.00
2018-05-08T12:59:36.428Z,28.00
2018-05-08T13:02:03.918Z,27.70
2018-05-08T13:04:31.394Z,27.90
2018-05-08T13:06:58.898Z,27.50
2018-05-08T13:09:26.374Z,27.50
2018-05-08T13:11:53.910Z,27.60
2018-05-08T13:14:21.459Z,27.80
2018-05-08T13:16:48.893Z,27.70
2018-05-08T13:19:17.143Z,27.90
2018-05-08T13:21:44.601Z,27.80
2018-05-08T13:24:12.175Z,27.80
2018-05-08T13:26:40.358Z,27.80
2018-05-08T13:29:07.884Z,27.80
2018-05-08T13:31:35.357Z,27.70
2018-05-08T13:34:02.869Z,27.50
2018-05-08T13:36:30.352Z,27.40
2018-05-08T13:38:57.871Z,27.80
2018-05-08T13:41:26.112Z,27.40
2018-05-08T13:43:53.626Z,27.30
2018-05-08T13:46:21.102Z,27.70
2018-05-08T13:48:48.608Z,27.80
2018-05-08T13:51:17.596Z,27.50
2018-05-08T13:53:45.914Z,27.90
2018-05-08T13:56:14.134Z,27.70
2018-05-08T13:58:41.685Z,27.70
2018-05-08T14:01:09.182Z,27.80
2018-05-08T14:03:37.433Z,27.70
2018-05-08T14:06:04.962Z,27.70
2018-05-08T14:08:32.494Z,27.40
2018-05-08T14:11:00.757Z,27.20
2018-05-08T14:13:29.020Z,27.10
2018-05-08T14:15:56.519Z,27.10
2018-05-08T14:18:24.029Z,27.10
2018-05-08T14:20:51.617Z,27.00
2018-05-08T14:23:19.862Z,26.70
2018-05-08T14:25:47.392Z,26.70
2018-05-08T14:28:14.889Z,26.80
2018-05-08T14:30:42.419Z,26.60
2018-05-08T14:33:09.920Z,26.60
2018-05-08T14:35:37.422Z,26.50
2018-05-08T14:38:04.941Z,26.30
2018-05-08T14:40:32.423Z,26.00
2018-05-08T14:42:59.933Z,25.90
2018-05-08T14:45:27.466Z,25.80
2018-05-08T14:47:54.972Z,25.60
2018-05-08T14:50:23.282Z,25.80
2018-05-08T14:52:50.819Z,25.80
2018-05-08T14:55:19.062Z,25.50
2018-05-08T14:57:46.560Z,25.50
2018-05-08T15:00:14.823Z,25.40
2018-05-08T15:02:42.304Z,25.40
2018-05-08T15:05:10.572Z,25.30
2018-05-08T15:07:38.834Z,25.30
2018-05-08T15:10:07.108Z,24.90
2018-05-08T15:12:35.368Z,24.90
2018-05-08T15:15:02.902Z,24.90
2018-05-08T15:17:30.372Z,24.80
2018-05-08T15:19:58.630Z,24.60
2018-05-08T15:22:26.140Z,24.70
2018-05-08T15:24:53.628Z,24.60
2018-05-08T15:27:21.889Z,24.60
2018-05-08T15:29:50.301Z,24.50
2018-05-08T15:32:17.765Z,24.50
2018-05-08T15:34:45.254Z,24.40
2018-05-08T15:37:12.733Z,24.10
2018-05-08T15:39:40.223Z,23.90
2018-05-08T15:42:07.709Z,23.80
2018-05-08T15:44:35.208Z,23.60
2018-05-08T15:47:02.690Z,23.60
2018-05-08T15:49:30.946Z,23.50
2018-05-08T15:51:58.457Z,23.40
2018-05-08T15:54:25.968Z,23.30
2018-05-08T15:56:54.268Z,23.10
2018-05-08T15:59:21.740Z,23.10
2018-05-08T16:01:49.257Z,23.10
2018-05-08T16:04:16.733Z,23.00
2018-05-08T16:06:45.015Z,23.00
2018-05-08T16:09:13.251Z,22.80
2018-05-08T16:11:40.760Z,22.80
2018-05-08T16:14:08.252Z,22.70
2018-05-08T16:16:35.730Z,22.60
2018-05-08T16:19:03.221Z,22.50
2018-05-08T16:21:31.449Z,22.40
2018-05-08T16:23:58.949Z,22.40
2018-05-08T16:26:27.202Z,22.20
2018-05-08T16:28:54.694Z,22.20
2018-05-08T16:31:22.950Z,22.10
2018-05-08T16:33:50.443Z,22.10
2018-05-08T16:36:17.930Z,22.10
2018-05-08T16:38:45.389Z,22.00
2018-05-08T16:41:12.881Z,22.00
2018-05-08T16:43:40.386Z,22.00
2018-05-08T16:46:07.889Z,21.90
2018-05-08T16:48:35.428Z,21.90
2018-05-08T16:51:02.952Z,21.80
2018-05-08T16:53:30.435Z,21.80
2018-05-08T16:55:57.940Z,21.60
2018-05-08T16:58:25.460Z,21.60
2018-05-08T17:00:52.964Z,21.60
2018-05-08T17:03:20.451Z,21.50
2018-05-08T17:05:47.926Z,21.40
2018-05-08T17:08:15.410Z,21.40
2018-05-08T17:10:42.911Z,21.30
2018-05-08T17:13:11.181Z,21.20
2018-05-08T17:15:39.401Z,21.20
2018-05-08T17:18:06.963Z,21.20
2018-05-08T17:20:34.423Z,21.10
2018-05-08T17:23:01.886Z,21.00
2018-05-08T17:25:29.393Z,21.00
2018-05-08T17:27:57.674Z,20.90
2018-05-08T17:30:25.916Z,20.80
2018-05-08T17:32:53.432Z,20.80
2018-05-08T17:35:20.922Z,20.80
2018-05-08T17:37:48.428Z,20.70
2018-05-08T17:40:16.657Z,20.50
2018-05-08T17:42:44.160Z,20.60
2018-05-08T17:45:11.655Z,20.50
2018-05-08T17:47:39.168Z,20.50
2018-05-08T17:50:06.678Z,20.40
2018-05-08T17:52:34.149Z,20.20
2018-05-08T17:55:01.663Z,20.20
2018-05-08T17:57:29.976Z,20.10
2018-05-08T17:59:58.185Z,20.00
2018-05-08T18:02:25.692Z,20.00
2018-05-08T18:04:53.185Z,20.00
2018-05-08T18:07:20.681Z,19.80
2018-05-08T18:09:48.929Z,19.60
2018-05-08T18:12:16.425Z,19.60
2018-05-08T18:14:43.898Z,19.60
2018-05-08T18:17:11.427Z,19.40
2018-05-08T18:19:38.936Z,19.30
2018-05-08T18:22:06.433Z,19.10
2018-05-08T18:24:33.948Z,19.00
2018-05-08T18:27:01.446Z,18.80
2018-05-08T18:29:29.565Z,18.60
2018-05-08T18:31:57.096Z,18.50
2018-05-08T18:34:24.593Z,18.40
2018-05-08T18:36:52.091Z,18.30
2018-05-08T18:39:19.558Z,18.30
2018-05-08T18:41:47.057Z,18.20
2018-05-08T18:44:14.560Z,18.20
2018-05-08T18:46:42.058Z,18.10
2018-05-08T18:49:10.294Z,18.00
2018-05-08T18:51:37.785Z,18.00
2018-05-08T18:54:06.038Z,17.70
2018-05-08T18:56:33.516Z,17.70
2018-05-08T18:59:01.024Z,17.60
2018-05-08T19:01:28.490Z,17.50
2018-05-08T19:03:56.007Z,17.40
2018-05-08T19:06:24.228Z,17.10
2018-05-08T19:08:51.739Z,17.10
2018-05-08T19:11:25.019Z,16.80
2018-05-08T19:13:53.320Z,16.50
2018-05-08T19:16:21.574Z,16.30
2018-05-08T19:18:54.716Z,16.30
2018-05-08T19:21:22.201Z,16.20
2018-05-08T19:23:55.314Z,16.00
2018-05-08T19:26:22.785Z,15.90
2018-05-08T19:28:56.852Z,15.60
2018-05-08T19:31:24.349Z,15.60
2018-05-08T19:33:52.617Z,15.50
2018-05-08T19:36:26.672Z,15.40
2018-05-08T19:38:54.162Z,15.30
2018-05-08T19:41:21.670Z,15.20
2018-05-08T19:43:49.950Z,14.90
2018-05-08T19:46:18.220Z,14.80
2018-05-08T19:48:46.458Z,14.60
2018-05-08T19:51:14.013Z,14.60
2018-05-08T19:53:41.518Z,14.50
2018-05-08T19:56:09.767Z,14.30
2018-05-08T19:58:38.736Z,14.20
2018-05-08T20:01:06.240Z,14.20
2018-05-08T20:03:34.502Z,14.00
2018-05-08T20:06:02.037Z,14.00
2018-05-08T20:08:29.522Z,13.90
2018-05-08T20:10:58.540Z,13.90
2018-05-08T20:13:26.776Z,13.80
2018-05-08T20:15:54.290Z,13.70
2018-05-08T20:18:21.758Z,13.60
2018-05-08T20:20:49.321Z,13.50
2018-05-08T20:23:16.802Z,13.50
2018-05-08T20:25:44.330Z,13.40
2018-05-08T20:28:11.822Z,13.40
2018-05-08T20:30:39.376Z,13.30
2018-05-08T20:33:07.588Z,13.10
2018-05-08T20:35:36.662Z,13.10
2018-05-08T20:38:04.162Z,13.10
2018-05-08T20:40:31.649Z,13.10
2018-05-08T20:42:59.185Z,12.90
2018-05-08T20:45:26.650Z,12.80
2018-05-08T20:47:54.170Z,12.70
2018-05-08T20:50:21.660Z,12.70
2018-05-08T20:52:49.162Z,12.60
2018-05-08T20:55:16.668Z,12.60
2018-05-08T20:57:44.927Z,12.50
2018-05-08T21:00:13.191Z,12.40
2018-05-08T21:02:40.657Z,12.40
2018-05-08T21:05:08.174Z,12.40
2018-05-08T21:07:35.643Z,12.30
2018-05-08T21:10:03.145Z,12.30
2018-05-08T21:12:31.384Z,12.20
2018-05-08T21:14:58.890Z,12.20
2018-05-08T21:17:27.309Z,12.10
2018-05-08T21:19:54.763Z,12.10
2018-05-08T21:22:22.265Z,12.00
2018-05-08T21:24:49.749Z,12.00
2018-05-08T21:27:18.030Z,11.90
2018-05-08T21:29:51.269Z,11.90
2018-05-08T21:32:18.770Z,11.80
2018-05-08T21:34:47.002Z,11.70
2018-05-08T21:37:15.064Z,11.60
2018-05-08T21:39:42.601Z,11.60
2018-05-08T21:42:10.064Z,11.50
2018-05-08T21:44:37.590Z,11.50
2018-05-08T21:47:05.844Z,11.50
2018-05-08T21:49:33.314Z,11.50
2018-05-08T21:52:00.849Z,11.50
2018-05-08T21:54:28.317Z,11.40
2018-05-08T21:56:55.815Z,11.40
2018-05-08T21:59:23.317Z,11.30
2018-05-08T22:01:50.809Z,11.30
2018-05-08T22:04:19.063Z,11.20
2018-05-08T22:06:46.569Z,11.20
2018-05-08T22:09:14.045Z,11.10
2018-05-08T22:11:41.561Z,11.00
2018-05-08T22:14:09.035Z,11.00
2018-05-08T22:16:37.296Z,10.90
2018-05-08T22:19:05.566Z,10.80
2018-05-08T22:21:33.029Z,10.80
2018-05-08T22:24:00.533Z,10.80
2018-05-08T22:26:28.017Z,10.70
2018-05-08T22:28:55.530Z,10.70
2018-05-08T22:31:23.010Z,10.80
2018-05-08T22:33:50.507Z,10.70
2018-05-08T22:36:17.976Z,10.70
2018-05-08T22:38:45.492Z,10.60
2018-05-08T22:41:12.953Z,10.60
2018-05-08T22:43:40.464Z,10.50
2018-05-08T22:46:08.696Z,10.40
2018-05-08T22:48:36.197Z,10.40
2018-05-08T22:51:04.481Z,10.30
2018-05-08T22:53:32.748Z,10.20
2018-05-08T22:56:00.985Z,10.20
2018-05-08T22:58:28.574Z,10.20
2018-05-08T23:00:56.096Z,10.10
2018-05-08T23:03:23.576Z,10.10
2018-05-08T23:05:51.058Z,10.00
2018-05-08T23:08:18.548Z,10.00
2018-05-08T23:10:46.790Z,9.90
2018-05-08T23:13:14.272Z,9.80
2018-05-08T23:15:42.497Z,9.70
2018-05-08T23:18:09.997Z,9.70
2018-05-08T23:20:37.462Z,9.80
2018-05-08T23:23:05.694Z,9.80
2018-05-08T23:25:33.212Z,9.80
2018-05-08T23:28:00.700Z,9.70
2018-05-08T23:30:28.194Z,9.70
2018-05-08T23:32:55.673Z,9.60
2018-05-08T23:35:23.933Z,9.60
2018-05-08T23:37:52.188Z,9.50
2018-05-08T23:40:19.665Z,9.50
2018-05-08T23:42:47.142Z,9.50
2018-05-08T23:45:14.664Z,9.50
2018-05-08T23:47:42.131Z,9.50
2018-05-08T23:50:09.601Z,9.50
2018-05-08T23:52:37.129Z,9.50
2018-05-08T23:55:04.625Z,9.50
2018-05-08T23:57:32.881Z,9.40
